Buxton, NC (27920)

1:14 AM EDT on September 21, 2014 (GMT -0400)
KNCBUXTO2 | Change Station
CLOSE
Current Station
Personal Weather Station
Location: Buxton, NC
Elevation: 42 ft
Nearby Weather Stations
Active Advisory: Beach Hazard Statement

Elev 42 ft 35.26 °N, 75.53 °W | Updated 12 minutes ago

Rain
Rain
73.0 °F
Feels Like 73.0 °F
N
2.0
Wind Variable Wind from East

Today
High -- | Low -- °F
--% Chance of Precip.
Yesterday
High -- | Low -- °F
Precip. -- in
6:49 AM 7:00 PM
Waning Crescent, 8% visible
Pressure 29.87 in
Visibility 5.0 miles
Clouds Scattered Clouds 800 ft
Mostly Cloudy 1600 ft
Overcast 2500 ft
Dew Point 72 °F
Humidity 98%
Rainfall 0.01 in
Snow Depth Not available.
UV 0 out of 12
Pollen 5.70 out of 12
Air Quality Not available.
Flu Activity Not available.
METAR KHSE 210451Z AUTO VRB03KT 5SM -RA BR SCT008 BKN016 OVC025 21/21 A2987 RMK AO2 SLP115 P0043 T02110211 402280194 TSNO

More Conditions Fewer Conditions

Pressure 29.87 in
Visibility 5.0 miles
Clouds Scattered Clouds 800 ft
Mostly Cloudy 1600 ft
Overcast 2500 ft
Dew Point 72 °F
Humidity 98%
Rainfall 0.01 in
Snow Depth Not available.
UV 0 out of 12
Pollen 5.70 out of 12
Air Quality Not available.
Flu Activity Not available.
METAR KHSE 210451Z AUTO VRB03KT 5SM -RA BR SCT008 BKN016 OVC025 21/21 A2987 RMK AO2 SLP115 P0043 T02110211 402280194 TSNO

More Conditions Fewer Conditions

10-Day Weather Forecast

Almanac

Astronomy

Sep. 21, 2014 Rise Set
Actual Time 6:49 AM EDT 7:00 PM EDT
Civil Twilight 6:23 AM EDT 7:25 PM EDT
Nautical Twilight 5:54 AM EDT 7:55 PM EDT
Astronomical Twilight 5:24 AM EDT 8:25 PM EDT
Moon 4:25 AM EDT 5:32 PM EDT
Length of Visible Light 13h 01m
Length of Day
12h 11m
Tomorrow will be 2m 12s shorter.
Waning Crescent, 8% of the Moon is Illuminated
Today
Waning Crescent
Sep 24
New
Oct 1
First Quarter
Oct 8
Full
Oct 15
Last Quarter

Today's Extremes

State Highs State Lows

Community

WunderPhotos

Upload Photos

1,755,091 photos uploaded!

Nearby

Snow Depth

Station Depth Elevation
No new snow has been reported.

Earthquake Activity

City Distance Mag. Time & Date
No recent earthquake activity has been reported nearby.
Minimum magnitude displayed is 2.5.

Coastal Water Temperatures

Place Temperature
Beaufort, NC 75.0 °F
Hatteras, NC 75.0 °F
Oregon Inlet Marina, NC 73.0 °F
Duck Pier, NC 73.9 °F
Johnny Mercer Pier, Wrightsville Beach, NC 79.0 °F

Nearby Weather Stations